AirNav   Pilot Hours Calculator
 
 729 users online  

86NE Orum Aerodrome
Blair, Nebraska, USA

GOING TO BLAIR?


FAA INFORMATION EFFECTIVE 03 NOVEMBER 2022

Location

FAA Identifier: 86NE
Lat/Long: 41-32-29.9800N 096-16-26.2900W
41-32.499667N 096-16.438167W
41.5416611,-96.2739694
(estimated)
Elevation: 1323 ft. / 403 m (estimated)
Variation: 06E (1985)
From city: 6 miles W of BLAIR, NE
Time zone: UTC -6 (UTC -5 during Daylight Saving Time)
Zip code: 68008

Airport Operations

Airport use: Private use. Permission required prior to landing
Activation date: 05/1987
Control tower: no
ARTCC: MINNEAPOLIS CENTER
FSS: COLUMBUS FLIGHT SERVICE STATION
Attendance: UNATNDD
Wind indicator: yes
Segmented circle: no

Airport Communications

WX AWOS-3 at BTA (11 nm SE): 120.225 (402-426-0448)
WX AWOS-3 at FET (12 nm SW): 121.275 (402-727-9135)
WX ASOS at TQE (14 nm N): 127.275 (402-374-2853)

Nearby radio navigation aids

VOR radial/distance  VOR name  Freq  Var
SCBr097/16.4SCRIBNER VOR/DME111.0006E
OVRr305/33.0OMAHA VORTAC116.3008E

 
NDB name  Hdg/Dist  Freq  Var  ID
WAHOO033/23.340006EAHQ .- .... --.-
PLATTSMOUTH331/39.432905EPMV .--. -- ...-

Airport Services

Runway Information

Runway 17/35

Dimensions: 2200 x 60 ft. / 671 x 18 m
Surface: turf
RUNWAY 17  RUNWAY 35
Latitude: 41-32.680833N41-32.318500N
Longitude: 096-16.437833W096-16.438500W
Elevation: 1315.0 ft.1323.0 ft.
Traffic pattern: leftleft
Runway heading: 174 magnetic, 180 true354 magnetic, 360 true
Obstructions: 20 ft. trees, 300 ft. from runway25 ft. pline, marked, 150 ft. from runway

Airport Ownership and Management from official FAA records

Ownership: Privately-owned
Owner: TAYLOR FAMILY TRUST
11493 CO RD 19
BLAIR, NE 68008
Phone 402-426-4327
Manager: JERRY TAYLOR
19550 COUNTY RD 18
BLAIR, NE 68008
Phone 402-427-5315

Airport Operational Statistics

Aircraft based on the field: 1
Single engine airplanes: 1
    

Additional Remarks

PPR TO LAND - CALL 402-426-4327.
FOR CD CTC OMAHA APCH AT 402-682-4395.

Instrument Procedures

There are no published instrument procedures at 86NE.

Some nearby airports with instrument procedures:

KBTA - Blair Executive Airport (11 nm SE)
KFET - Fremont Municipal Airport (12 nm SW)
KTQE - Tekamah Municipal Airport (14 nm N)
KSCB - Scribner State Airport (16 nm W)
KMLE - Millard Airport (22 nm S)
 
Loc | Ops | Rwys | IFR | FBO | Links
Com | Nav | Svcs | Stats | Notes
Area around 86NE (Orum Aerodrome)
 
Road maps at: MapQuest Bing Google
 
Aerial photo
No photo
 
Sectional chart

 
Airport distance calculator
Flying to Orum Aerodrome? Find the distance to fly.

From to 86NE

Sunrise and sunset
Times for 30-Nov-2022
 Local
(UTC-6)
 Zulu
(UTC)
Morning civil twilight07:0113:01
Sunrise07:3213:32
Sunset16:5522:55
Evening civil twilight17:2623:26

Current date and time
Zulu (UTC)  01-Dec-2022 05:01:42
Local (UTC-6)  30-Nov-2022 23:01:42
 
METAR
KBTA 
11nm SE 
010455Z AUTO 16003KT 10SM CLR M08/M12 A3033 RMK AO2 T10821117
KFET 
12nm SW 
010455Z AUTO 14006KT 10SM CLR M08/M12 A3033 RMK AO2 T10811119
KTQE 
14nm N 
010454Z AUTO 14004KT 10SM CLR M13/M15 A3035 RMK AO2 SLP294 T11281150
TAF
NOTAMs
Click for the latest NOTAMs
NOTAMs are issued by the DoD/FAA and will open in a separate window not controlled by AirNav.

 

 
 

Would you like to see your business listed on this page?

 If your business provides an interesting product or service to pilots, flight crews, aircraft, or users of the Orum Aerodrome, you should consider listing it here.  To start the listing process, click on the button below
 
Add a business
 

Other Pages about Orum Aerodrome

Update a link
 
Copyright © AirNav, LLC. All rights reserved. Privacy Policy  Contact